Durango Ski Resort, Colorado Weather observations

Data are for observation ending at time listed.
 Day   Time    Ave.   Ave.  Ave.  Vector   Max.    Total    Solar   Ave.  
  of    of     Air    Rel.  Wind   Wind    Wind   Precip.   Rad.    Soil  
Year   Day     Temp.  Hum.  Speed  Dir.    Gust                     Temp. 
2014   (PST)    F      %     mph   deg.    mph      in.     W/m2     F   
------------------------------------------------------------------------------
 298    1:40   46.7    39    0.0     0      0.0    99999.00   99999    99999.0
 298    1:50   46.5    38    0.0     0      0.0    99999.00   99999    99999.0
 298    2:00   46.4    39    0.0     0      0.0    99999.00   99999    99999.0
 298    2:10   46.5    39    0.0     0      0.0    99999.00   99999    99999.0
 298    2:20   46.6    36    0.0     0      0.0    99999.00   99999    99999.0
 298    2:30   46.5    37    0.0     0      0.0    99999.00   99999    99999.0
 298    2:40   46.4    37    0.0     0      0.0    99999.00   99999    99999.0
 298    2:50   46.3    34    0.0     0      0.0    99999.00   99999    99999.0
 298    3:00   45.9    37    0.0     0      0.0    99999.00   99999    99999.0
 298    3:10   45.9    36    0.0     0      0.0    99999.00   99999    99999.0
 298    3:20   45.9    39    0.0     0      0.0    99999.00   99999    99999.0
 298    3:30   45.6    40    0.0     0      0.0    99999.00   99999    99999.0
 298    3:40   45.8    38    0.0     0      0.0    99999.00   99999    99999.0
 298    3:50   46.0    35    0.0     0      0.0    99999.00   99999    99999.0
 298    4:00   45.8    37    0.0     0      0.0    99999.00   99999    99999.0
 298    4:10   45.6    38    0.0     0      0.0    99999.00   99999    99999.0
 298    4:20   45.5    37    0.0     0      0.0    99999.00   99999    99999.0
 298    4:30   45.3    37    0.0     0      0.0    99999.00   99999    99999.0
 298    4:40   45.3    35    0.0     0      0.0    99999.00   99999    99999.0
 298    4:50   45.6    33    0.0     0      0.0    99999.00   99999    99999.0
 298    5:00   45.8    32    0.0     0      0.0    99999.00   99999    99999.0
 298    5:10   45.8    29    0.0     0      0.0    99999.00   99999    99999.0
 298    5:20   46.1    26    0.0     0      0.0    99999.00   99999    99999.0
 298    5:30   46.2    23    0.0     0      0.0    99999.00   99999    99999.0
 298    5:40   46.2    21    0.0     0      0.0    99999.00   99999    99999.0
 298    5:50   46.2    20    0.0     0      0.0    99999.00   99999    99999.0
 298    6:00   46.2    20    0.0     0      0.0    99999.00   99999    99999.0
 298    6:10   46.2    19    0.0     0      0.0    99999.00   99999    99999.0
 298    6:20   46.2    19    0.0     0      0.0    99999.00   99999    99999.0
 298    6:30   46.4    18    0.0     0      0.0    99999.00   99999    99999.0
 298    6:40   46.4    18    0.0     0      0.0    99999.00   99999    99999.0
 298    6:50   46.9    17    0.0     0      0.0    99999.00   99999    99999.0
 298    7:00   47.7    16    0.0     0      0.0    99999.00   99999    99999.0
 298    7:10   48.0    15    0.0     0      0.0    99999.00   99999    99999.0
 298    7:20   48.3    18    0.0     0      0.0    99999.00   99999    99999.0
 298    7:30   48.5    17    0.0     0      0.0    99999.00   99999    99999.0
 298    7:40   48.6    17    0.0     0      0.0    99999.00   99999    99999.0
 298    7:50   48.4    17    0.0     0      0.0    99999.00   99999    99999.0
 298    8:00   48.8    16    0.0     0      0.0    99999.00   99999    99999.0
 298    8:10   48.5    16    0.0     0      0.0    99999.00   99999    99999.0
 298    8:20   48.6    17    0.0     0      0.0    99999.00   99999    99999.0
 298    8:30   48.5    20    0.0     0      0.0    99999.00   99999    99999.0
 298    8:40   48.2    22    0.0     0      0.0    99999.00   99999    99999.0
 298    8:50   48.2    23    1.9   326      7.4    99999.00   99999    99999.0
 298    9:00   47.8    24    6.7   326      8.6    99999.00   99999    99999.0
 298    9:10   48.3    24    5.1   326      7.8    99999.00   99999    99999.0
 298    9:20   48.9    24    1.9   326      6.5    99999.00   99999    99999.0
 298    9:30   49.4    24    0.4   326      5.7    99999.00   99999    99999.0
 298    9:40   50.4    23    0.5   326      5.2    99999.00   99999    99999.0
 298    9:50   52.0    23    0.0     0      0.0    99999.00   99999    99999.0
 298   10:00   53.0    22    0.0     0      0.0    99999.00   99999    99999.0
 298   10:10   52.1    22    1.1   326      5.2    99999.00   99999    99999.0
 298   10:20   52.4    23    0.0     0      0.0    99999.00   99999    99999.0
 298   10:30   52.2    25    2.8   234     11.2    99999.00   99999    99999.0
 298   10:40   52.4    26    4.9   200     11.2    99999.00   99999    99999.0
 298   10:50   53.4    27    3.8   202      8.2    99999.00   99999    99999.0
 298   11:00   53.0    28    3.6   186      9.9    99999.00   99999    99999.0
 298   11:10   54.4    29    5.9   179     11.6    99999.00   99999    99999.0
 298   11:20   53.4    30    7.2   153     10.3    99999.00   99999    99999.0
 298   11:30   53.4    30    8.2   152     12.9    99999.00   99999    99999.0
 298   11:40   52.3    30    9.5   142     13.8    99999.00   99999    99999.0
 298   11:50   52.5    30    8.8   143     14.6    99999.00   99999    99999.0
 298   12:00   52.5    31    9.2   145     13.8    99999.00   99999    99999.0
 298   12:10   54.3    30    8.5   168     14.6    99999.00   99999    99999.0
 298   12:20   55.0    30    8.2   167     12.5    99999.00   99999    99999.0
 298   12:30   54.1    31    9.5   155     17.2    99999.00   99999    99999.0
 298   12:40   53.9    31    8.5   155     13.8    99999.00   99999    99999.0
 298   12:50   54.4    31    9.9   165     14.6    99999.00   99999    99999.0
 298   13:00   53.7    32    9.9   160     15.9    99999.00   99999    99999.0
 298   13:10   54.3    32    8.9   160     14.6    99999.00   99999    99999.0
 298   13:20   54.2    33    9.6   160     15.5    99999.00   99999    99999.0
 298   13:30   53.6    33   10.2   157     16.8    99999.00   99999    99999.0
 298   13:40   54.0    33    9.8   158     15.0    99999.00   99999    99999.0
 298   13:50   53.2    34   11.3   157     18.9    99999.00   99999    99999.0
 298   14:00   53.5    34   10.1   159     18.0    99999.00   99999    99999.0
 298   14:10   53.4    34   10.6   161     18.9    99999.00   99999    99999.0
 298   14:20   52.9    34   11.6   158     19.7    99999.00   99999    99999.0
 298   14:30   53.4    33   10.6   162     16.3    99999.00   99999    99999.0
 298   14:40   53.0    33   11.0   162     18.9    99999.00   99999    99999.0
 298   14:50   53.3    32   10.0   169     14.6    99999.00   99999    99999.0
 298   15:00   53.8    31    8.8   182     14.6    99999.00   99999    99999.0
 298   15:10   54.9    30    8.2   186     13.8    99999.00   99999    99999.0
 298   15:20   54.4    30    8.3   186     13.3    99999.00   99999    99999.0
 298   15:30   54.9    30    7.9   191     14.6    99999.00   99999    99999.0
 298   15:40   53.3    31    8.9   177     14.6    99999.00   99999    99999.0
 298   15:50   52.4    32    9.6   175     15.0    99999.00   99999    99999.0
 298   16:00   51.9    32    8.3   175     14.6    99999.00   99999    99999.0
 298   16:10   51.4    32    9.6   178     15.0    99999.00   99999    99999.0
 298   16:20   51.2    33    8.3   175     13.8    99999.00   99999    99999.0
 298   16:30   50.7    34    8.2   175     12.5    99999.00   99999    99999.0
 298   16:40   50.1    35    7.5   182     12.5    99999.00   99999    99999.0
 298   16:50   49.4    37    7.2   179     10.8    99999.00   99999    99999.0
 298   17:00   48.8    37    8.1   172     12.5    99999.00   99999    99999.0
 298   17:10   48.3    38    7.7   178     10.3    99999.00   99999    99999.0
 298   17:20   47.7    39    8.6   183     14.2    99999.00   99999    99999.0
 298   17:30   46.5    42    8.7   184     13.8    99999.00   99999    99999.0
 298   17:40   45.8    43    8.4   185     15.0    99999.00   99999    99999.0
 298   17:50   45.5    44    9.3   186     13.8    99999.00   99999    99999.0
 298   18:00   45.2    44    9.7   186     15.0    99999.00   99999    99999.0
 298   18:10   45.0    45    8.5   192     14.6    99999.00   99999    99999.0
 298   18:20   44.5    46    9.1   192     13.3    99999.00   99999    99999.0
 298   18:30   44.6    46    9.6   190     15.9    99999.00   99999    99999.0
 298   18:40   44.6    46   10.5   186     15.5    99999.00   99999    99999.0
 298   18:50   44.5    46   10.6   189     14.6    99999.00   99999    99999.0
 298   19:00   44.4    46    9.6   189     12.1    99999.00   99999    99999.0
 298   19:10   44.2    46    8.9   193     14.2    99999.00   99999    99999.0
 298   19:20   44.0    48    8.9   188     12.9    99999.00   99999    99999.0
 298   19:30   44.1    50    9.1   186     13.3    99999.00   99999    99999.0
 298   19:40   43.9    52    9.9   191     14.2    99999.00   99999    99999.0
 298   19:50   44.0    53    9.5   192     12.1    99999.00   99999    99999.0
 298   20:00   44.1    52    9.5   205     13.8    99999.00   99999    99999.0
 298   20:10   44.5    50    8.8   211     14.2    99999.00   99999    99999.0
 298   20:20   44.1    51    8.5   205     12.9    99999.00   99999    99999.0
 298   20:30   44.0    52    8.2   201     12.9    99999.00   99999    99999.0
 298   20:40   44.0    52    7.5   214     10.8    99999.00   99999    99999.0
 298   20:50   44.1    52    7.8   215     14.2    99999.00   99999    99999.0
 298   21:00   44.0    52    7.5   212     11.6    99999.00   99999    99999.0
 298   21:10   43.8    53    7.1   209      9.5    99999.00   99999    99999.0
 298   21:20   43.8    54    8.1   200     11.2    99999.00   99999    99999.0
 298   21:30   43.4    55    7.8   188      9.9    99999.00   99999    99999.0
 298   21:40   43.6    54    7.4   183     10.8    99999.00   99999    99999.0
 298   21:50   43.7    55    8.3   187     11.2    99999.00   99999    99999.0
 298   22:00   43.6    55    8.5   201     12.1    99999.00   99999    99999.0
 298   22:10   43.7    56    8.3   206     11.2    99999.00   99999    99999.0
 298   22:20   43.6    56    7.9   213     11.6    99999.00   99999    99999.0
 298   22:30   43.7    56    7.6   207      9.9    99999.00   99999    99999.0
 298   22:40   43.7    57    8.0   202     11.6    99999.00   99999    99999.0
 298   22:50   43.3    58    8.0   203     11.6    99999.00   99999    99999.0
 298   23:00   43.1    59    7.0   193      9.5    99999.00   99999    99999.0
 298   23:10   43.1    59    7.6   192     12.1    99999.00   99999    99999.0
 298   23:20   42.9    60    7.6   197     10.3    99999.00   99999    99999.0
 298   23:30   42.8    61    8.5   195     13.8    99999.00   99999    99999.0
 298   23:40   42.8    62    9.3   199     13.3    99999.00   99999    99999.0
 298   23:50   42.6    62    9.0   196     12.9    99999.00   99999    99999.0
 299    0:00   42.3    63    9.7   201     13.3    99999.00   99999    99999.0
 299    0:10   42.2    64   10.7   205     15.0    99999.00   99999    99999.0
 299    0:20   42.8    62   10.9   209     17.6    99999.00   99999    99999.0
 299    0:30   42.4    64    8.8   206     13.3    99999.00   99999    99999.0
 299    0:40   42.3    65    9.3   208     11.6    99999.00   99999    99999.0
 299    0:50   42.7    63    9.1   212     13.3    99999.00   99999    99999.0
 299    1:00   42.6    63    6.5   212      9.1    99999.00   99999    99999.0
 299    1:10   42.2    65    6.2   204      9.1    99999.00   99999    99999.0
 299    1:20   42.3    65    6.3   202      7.8    99999.00   99999    99999.0
 299    1:30   42.6    65    4.9   243     10.3    99999.00   99999    99999.0

Return to Durango Ski Resort, Colorado graphs page.


Western Regional Climate Center,wrcc@dri.edu